HETB/TCP METAR and TAF weather

Enter ICAO airport designator
Station Type Date Time Source
HETB METAR 2021/08/05 20:00 UTC NOAA

HETB 052000Z NI NOSIGL


Station Type Date Time Source
HETB Decoded METAR 2021/08/05 20:00 UTC NOAA

Taba, Egypt (HETB) 29-35-57N 034-46-36E
Aug 05, 2021 - 04:00 PM EDT / 2021.08.05 2000 UTC
ob: HETB 052000Z NI NOSIGL
cycle: 20

Station Type Date Time Source
HETB TAF 2021/09/23 18:43 UTC NOAA

TAF HETB 231700Z 2318/2424 32006G18KT CAVOK

Example: see airport list